Terminal Aerodrome Forecast
Issued by NWS

Home | Current Version | Previous Version | Text Only | Print | Product List | Glossary On
Versions: 1 2 3 4 5 6 7 8 9 10 11 12 13 14 15 16 17 18 19 20
000
FTUS46 KSEW 240500
TAFHQM
TAF
KHQM 240534Z 2406/2506 07008KT P6SM -SHRA BKN050 BKN080
     FM240800 07008KT P6SM SCT060 BKN100
     FM241500 07008KT P6SM SCT100 BKN200
     FM242200 04008KT P6SM BKN100 OVC200
     FM250300 04008KT P6SM -RA OVC035=

USA.gov is the U.S. government's official web portal to all federal, state and local government web resources and services.